ACA144 CYUL-MMUN
Flight info
| Callsign | ACA144 |
|---|---|
| Flight time | N/A |
| Altitude | 38000 |
| Route | FAWNS DCT BUGSY DCT SYR DCT PSB Q71 EMNEM Q103 ASBUR/N0457F400 Q103 SLOJO Q75 ENEME DCT CTY DCT KNOST M215 CIGAR M219 NAVVL L465 SHARQ UM463 WALKY UB879 NOSAT NOSAT1B |
| Aircraft | A333/H-SDE3GHIJ2J3J5M1RVWXY/LB2D1 |
Departure
| Time | 2026-05-05 22:48 |
|---|---|
| Airport | Montreal / Pierre Elliott Trudeau International Airport (CYUL) |
Arrival
| Time | N/A |
|---|---|
| Airport | Cancún International Airport (MMUN) |
| Time | Latitude | Longitude | Altitude | Speed | Heading |
|---|---|---|---|---|---|
| 2026-05-05 22:37 | 45.45978 | -73.75635 | 108 ft | 0 kts | 178° |
| 2026-05-05 22:39 | 45.45983 | -73.75635 | 108 ft | 3 kts | 178° |
| 2026-05-05 22:39 | 45.46002 | -73.75636 | 108 ft | 3 kts | 178° |
| 2026-05-05 22:39 | 45.46021 | -73.75640 | 107 ft | 3 kts | 157° |
| 2026-05-05 22:40 | 45.46041 | -73.75650 | 106 ft | 3 kts | 134° |
| 2026-05-05 22:40 | 45.46050 | -73.75668 | 107 ft | 0 kts | 96° |
| 2026-05-05 22:40 | 45.46050 | -73.75665 | 105 ft | 1 kts | 96° |
| 2026-05-05 22:41 | 45.46049 | -73.75649 | 107 ft | 3 kts | 96° |
| 2026-05-05 22:41 | 45.46047 | -73.75616 | 108 ft | 4 kts | 92° |
| 2026-05-05 22:41 | 45.46053 | -73.75549 | 108 ft | 12 kts | 81° |
| 2026-05-05 22:41 | 45.46085 | -73.75422 | 107 ft | 16 kts | 46° |
| 2026-05-05 22:42 | 45.46136 | -73.75276 | 105 ft | 17 kts | 80° |
| 2026-05-05 22:42 | 45.46147 | -73.75082 | 107 ft | 21 kts | 86° |
| 2026-05-05 22:42 | 45.46150 | -73.74869 | 108 ft | 22 kts | 89° |
| 2026-05-05 22:42 | 45.46150 | -73.74635 | 107 ft | 24 kts | 95° |
| 2026-05-05 22:43 | 45.46132 | -73.74394 | 107 ft | 25 kts | 90° |
| 2026-05-05 22:43 | 45.46141 | -73.74139 | 108 ft | 26 kts | 83° |
| 2026-05-05 22:43 | 45.46235 | -73.73931 | 108 ft | 26 kts | 43° |
| 2026-05-05 22:43 | 45.46370 | -73.73752 | 108 ft | 27 kts | 43° |
| 2026-05-05 22:44 | 45.46510 | -73.73569 | 111 ft | 28 kts | 43° |
| 2026-05-05 22:44 | 45.46654 | -73.73380 | 111 ft | 29 kts | 42° |
| 2026-05-05 22:44 | 45.46803 | -73.73187 | 113 ft | 29 kts | 43° |
| 2026-05-05 22:44 | 45.46955 | -73.72986 | 115 ft | 30 kts | 42° |
| 2026-05-05 22:45 | 45.47113 | -73.72781 | 118 ft | 31 kts | 43° |
| 2026-05-05 22:45 | 45.47274 | -73.72570 | 117 ft | 32 kts | 43° |
| 2026-05-05 22:45 | 45.47439 | -73.72352 | 119 ft | 33 kts | 42° |
| 2026-05-05 22:45 | 45.47610 | -73.72128 | 119 ft | 34 kts | 42° |
| 2026-05-05 22:46 | 45.47766 | -73.71925 | 121 ft | 23 kts | 43° |
| 2026-05-05 22:46 | 45.47791 | -73.71780 | 127 ft | 14 kts | 122° |
| 2026-05-05 22:46 | 45.47783 | -73.71765 | 121 ft | 0 kts | 126° |
| 2026-05-05 22:47 | 45.47782 | -73.71764 | 121 ft | 1 kts | 126° |
| 2026-05-05 22:47 | 45.47753 | -73.71713 | 122 ft | 10 kts | 131° |
| 2026-05-05 22:47 | 45.47689 | -73.71669 | 126 ft | 13 kts | 175° |
| 2026-05-05 22:48 | 45.47592 | -73.71749 | 127 ft | 29 kts | 219° |
| 2026-05-05 22:48 | 45.47223 | -73.72236 | 118 ft | 116 kts | 221° |
| 2026-05-05 22:48 | 45.46459 | -73.73257 | 459 ft | 173 kts | 228° |
| 2026-05-05 22:48 | 45.45498 | -73.74474 | 1384 ft | 200 kts | 221° |
| 2026-05-05 22:49 | 45.44203 | -73.75614 | 2339 ft | 239 kts | 213° |
| 2026-05-05 22:49 | 45.42706 | -73.76699 | 2832 ft | 241 kts | 211° |
| 2026-05-05 22:49 | 45.41181 | -73.77713 | 3126 ft | 244 kts | 210° |
| 2026-05-05 22:49 | 45.39615 | -73.78760 | 3754 ft | 250 kts | 210° |
| 2026-05-05 22:50 | 45.38085 | -73.79818 | 4879 ft | 245 kts | 212° |
| 2026-05-05 22:50 | 45.36561 | -73.80906 | 6095 ft | 238 kts | 214° |
| 2026-05-05 22:50 | 45.35125 | -73.81962 | 7220 ft | 234 kts | 215° |
| 2026-05-05 22:50 | 45.33700 | -73.83032 | 8366 ft | 230 kts | 216° |
| 2026-05-05 22:51 | 45.32292 | -73.84105 | 9476 ft | 229 kts | 216° |
| 2026-05-05 22:51 | 45.30889 | -73.85182 | 10375 ft | 233 kts | 216° |
| 2026-05-05 22:51 | 45.29398 | -73.86344 | 10817 ft | 255 kts | 216° |
| 2026-05-05 22:51 | 45.27783 | -73.87604 | 11291 ft | 272 kts | 215° |
| 2026-05-05 22:52 | 45.26087 | -73.88907 | 12022 ft | 280 kts | 215° |
| 2026-05-05 22:52 | 45.24346 | -73.90226 | 12869 ft | 285 kts | 215° |
| 2026-05-05 22:52 | 45.22579 | -73.91556 | 13685 ft | 290 kts | 215° |
| 2026-05-05 22:52 | 45.20773 | -73.92915 | 14363 ft | 296 kts | 214° |
| 2026-05-05 22:53 | 45.18962 | -73.94278 | 15085 ft | 301 kts | 214° |
| 2026-05-05 22:53 | 45.17099 | -73.95682 | 15840 ft | 305 kts | 214° |
| 2026-05-05 22:53 | 45.15212 | -73.97104 | 16584 ft | 309 kts | 214° |
| 2026-05-05 22:53 | 45.13299 | -73.98546 | 17341 ft | 313 kts | 214° |
| 2026-05-05 22:54 | 45.11362 | -74.00007 | 18058 ft | 318 kts | 214° |
| 2026-05-05 22:54 | 45.09400 | -74.01486 | 18708 ft | 321 kts | 213° |
| 2026-05-05 22:54 | 45.07421 | -74.02976 | 19416 ft | 323 kts | 213° |
| 2026-05-05 22:54 | 45.05425 | -74.04476 | 20120 ft | 325 kts | 213° |
| 2026-05-05 22:55 | 45.03420 | -74.05984 | 20758 ft | 328 kts | 212° |
| 2026-05-05 22:55 | 45.01392 | -74.07508 | 21368 ft | 332 kts | 212° |
| 2026-05-05 22:55 | 44.99296 | -74.08913 | 22007 ft | 339 kts | 204° |
| 2026-05-05 22:55 | 44.96999 | -74.09785 | 22668 ft | 345 kts | 198° |
| 2026-05-05 22:56 | 44.94607 | -74.10341 | 23297 ft | 350 kts | 194° |
| 2026-05-05 22:56 | 44.92169 | -74.10742 | 23786 ft | 355 kts | 193° |
| 2026-05-05 22:56 | 44.89719 | -74.11096 | 24209 ft | 360 kts | 193° |
| 2026-05-05 22:56 | 44.87206 | -74.11468 | 24656 ft | 364 kts | 194° |
| 2026-05-05 22:57 | 44.84675 | -74.11873 | 25080 ft | 368 kts | 194° |
| 2026-05-05 22:57 | 44.82114 | -74.12315 | 25482 ft | 372 kts | 195° |
| 2026-05-05 22:57 | 44.79567 | -74.12778 | 25918 ft | 375 kts | 195° |
| 2026-05-05 22:57 | 44.76976 | -74.13311 | 26360 ft | 376 kts | 199° |
| 2026-05-05 22:58 | 44.74457 | -74.14232 | 26788 ft | 372 kts | 206° |
| 2026-05-05 22:58 | 44.72092 | -74.15646 | 27255 ft | 368 kts | 214° |
| 2026-05-05 22:58 | 44.69941 | -74.17569 | 27700 ft | 364 kts | 223° |
| 2026-05-05 22:58 | 44.68011 | -74.19868 | 28150 ft | 364 kts | 227° |
| 2026-05-05 22:59 | 44.66156 | -74.22304 | 28562 ft | 366 kts | 230° |
| 2026-05-05 22:59 | 44.64331 | -74.24817 | 28988 ft | 368 kts | 230° |
| 2026-05-05 22:59 | 44.62514 | -74.27360 | 29444 ft | 370 kts | 231° |
| 2026-05-05 22:59 | 44.60683 | -74.29923 | 29896 ft | 373 kts | 231° |
| 2026-05-05 23:00 | 44.56988 | -74.35034 | 30640 ft | 378 kts | 231° |
| 2026-05-05 23:00 | 44.55103 | -74.37613 | 31043 ft | 380 kts | 231° |
| 2026-05-05 23:00 | 44.53201 | -74.40204 | 31381 ft | 383 kts | 230° |
| 2026-05-05 23:01 | 44.51280 | -74.42814 | 31748 ft | 385 kts | 230° |
| 2026-05-05 23:01 | 44.49351 | -74.45430 | 32097 ft | 387 kts | 231° |
| 2026-05-05 23:01 | 44.47418 | -74.48045 | 32624 ft | 385 kts | 231° |
| 2026-05-05 23:01 | 44.45497 | -74.50640 | 33177 ft | 382 kts | 231° |
| 2026-05-05 23:02 | 44.43589 | -74.53215 | 33717 ft | 380 kts | 231° |
| 2026-05-05 23:02 | 44.41688 | -74.55781 | 34155 ft | 378 kts | 231° |
| 2026-05-05 23:02 | 44.39795 | -74.58340 | 34489 ft | 379 kts | 231° |
| 2026-05-05 23:02 | 44.37922 | -74.60871 | 34816 ft | 379 kts | 231° |
| 2026-05-05 23:03 | 44.36020 | -74.63438 | 35163 ft | 380 kts | 231° |
| 2026-05-05 23:03 | 44.34121 | -74.65997 | 35483 ft | 380 kts | 231° |
| 2026-05-05 23:03 | 44.32213 | -74.68566 | 35786 ft | 380 kts | 231° |
| 2026-05-05 23:03 | 44.30303 | -74.71135 | 36098 ft | 381 kts | 231° |
| 2026-05-05 23:04 | 44.28389 | -74.73706 | 36414 ft | 381 kts | 231° |
| 2026-05-05 23:04 | 44.26477 | -74.76272 | 36742 ft | 382 kts | 231° |
| 2026-05-05 23:04 | 44.24558 | -74.78844 | 37066 ft | 382 kts | 230° |
| 2026-05-05 23:04 | 44.22663 | -74.81383 | 37357 ft | 382 kts | 230° |
| 2026-05-05 23:05 | 44.20746 | -74.83947 | 37665 ft | 383 kts | 230° |
| 2026-05-05 23:05 | 44.18821 | -74.86521 | 37759 ft | 383 kts | 230° |
| 2026-05-05 23:05 | 44.14971 | -74.91657 | 37755 ft | 383 kts | 231° |
| 2026-05-05 23:06 | 44.11762 | -74.95933 | 37758 ft | 383 kts | 231° |
| 2026-05-05 23:06 | 44.07277 | -75.01900 | 37761 ft | 383 kts | 231° |
| 2026-05-05 23:07 | 44.04064 | -75.06166 | 37758 ft | 383 kts | 230° |
| 2026-05-05 23:07 | 44.00210 | -75.11269 | 37752 ft | 381 kts | 231° |
| 2026-05-05 23:08 | 43.96359 | -75.16365 | 37760 ft | 382 kts | 231° |
| 2026-05-05 23:08 | 43.92502 | -75.21460 | 37752 ft | 382 kts | 231° |
| 2026-05-05 23:09 | 43.88670 | -75.26508 | 37763 ft | 382 kts | 231° |
| 2026-05-05 23:09 | 43.84805 | -75.31592 | 37764 ft | 382 kts | 231° |
| 2026-05-05 23:10 | 43.80935 | -75.36674 | 37758 ft | 382 kts | 231° |
| 2026-05-05 23:10 | 43.77091 | -75.41711 | 37757 ft | 382 kts | 230° |
| 2026-05-05 23:11 | 43.73226 | -75.46765 | 37765 ft | 381 kts | 230° |
| 2026-05-05 23:11 | 43.69374 | -75.51791 | 37762 ft | 380 kts | 230° |
| 2026-05-05 23:12 | 43.65520 | -75.56814 | 37767 ft | 382 kts | 231° |
| 2026-05-05 23:12 | 43.61704 | -75.61781 | 37777 ft | 382 kts | 231° |
| 2026-05-05 23:13 | 43.57852 | -75.66782 | 37771 ft | 382 kts | 231° |
| 2026-05-05 23:13 | 43.53976 | -75.71805 | 37773 ft | 382 kts | 231° |
| 2026-05-05 23:14 | 43.50091 | -75.76829 | 37774 ft | 383 kts | 231° |
| 2026-05-05 23:14 | 43.46191 | -75.81867 | 37774 ft | 384 kts | 231° |
| 2026-05-05 23:15 | 43.42295 | -75.86885 | 37776 ft | 383 kts | 231° |
| 2026-05-05 23:15 | 43.38424 | -75.91864 | 37775 ft | 383 kts | 231° |
| 2026-05-05 23:16 | 43.34530 | -75.96865 | 37789 ft | 383 kts | 231° |
| 2026-05-05 23:16 | 43.30620 | -76.01878 | 37809 ft | 385 kts | 231° |
| 2026-05-05 23:17 | 43.26703 | -76.06890 | 37817 ft | 385 kts | 231° |
| 2026-05-05 23:17 | 43.22805 | -76.11866 | 37820 ft | 385 kts | 231° |
| 2026-05-05 23:18 | 43.18878 | -76.16870 | 37833 ft | 385 kts | 231° |
| 2026-05-05 23:18 | 43.14659 | -76.21535 | 37833 ft | 397 kts | 223° |
| 2026-05-05 23:19 | 43.09984 | -76.25592 | 37827 ft | 402 kts | 221° |
| 2026-05-05 23:19 | 43.05189 | -76.29533 | 37827 ft | 403 kts | 220° |
| 2026-05-05 23:20 | 43.00378 | -76.33466 | 37790 ft | 403 kts | 220° |
| 2026-05-05 23:20 | 42.95550 | -76.37437 | 37807 ft | 408 kts | 221° |
| 2026-05-05 23:21 | 42.90680 | -76.41447 | 37795 ft | 409 kts | 220° |
| 2026-05-05 23:21 | 42.85795 | -76.45461 | 37786 ft | 409 kts | 220° |
| 2026-05-05 23:22 | 42.80941 | -76.49441 | 37783 ft | 410 kts | 220° |
| 2026-05-05 23:22 | 42.76048 | -76.53451 | 37806 ft | 410 kts | 221° |
| 2026-05-05 23:23 | 42.71159 | -76.57444 | 37812 ft | 408 kts | 221° |
| 2026-05-05 23:23 | 42.66315 | -76.61395 | 37819 ft | 408 kts | 221° |
| 2026-05-05 23:24 | 42.61435 | -76.65372 | 37823 ft | 410 kts | 221° |
| 2026-05-05 23:24 | 42.56528 | -76.69365 | 37822 ft | 412 kts | 221° |
| 2026-05-05 23:25 | 42.51604 | -76.73359 | 37820 ft | 412 kts | 220° |
| 2026-05-05 23:25 | 42.46679 | -76.77344 | 37815 ft | 412 kts | 221° |
| 2026-05-05 23:26 | 42.41758 | -76.81324 | 37806 ft | 414 kts | 220° |